Etusivu
METAR-TAF:

METAR-TAF

Lentoasemat :

Pell City, Alabama, Yhdysvallat

Leveyspiiri: 33-33-32N, Pituuspiiri: 086-14-57W, korkeus merenpinnasta: 148 m

Tämänhetkinen sää

Tämä raportti tehtiin 28 minuuttia sitten, kello 23.15 UTC
tyyntä
Lämpötila 16°C
Kosteus 100%
Ilmanpaine 1009 hPa
Näkyvyys: 16.1 km
selkeää

METAR: KPLR 252315Z AUTO 00000KT 10SM CLR 16/16 A2981 RMK A01

Aika: 18:43 (23:43 UTC)


TAF: puuttuu

Säähavainnot ja -ennusteet yli 4000 lentoasemalta (METAR- ja TAF-raportit).

Käytössä olevat sääasemat on merkitty karttaan keltaisilla ja punaisilla pisteillä.

Aseta hiiri pisteen päälle nähdäksesi sääaseman nimen.

Klikkaa sitten nähdäksesi säähavainnot ja -ennusteet.

Kartan vaihtaminen: klikkaa mustalla rastilla varustettuja vihreitä pisteitä, niin voit zoomata sisään; viivalla varustettua vihreää pistettä, niin voit zoomata ulos tai vihreitä nuolia, niin pääset viereisille kartoille.


METAR-TAF: